Time,TemperatureF,DewpointF,PressureIn,WindDirection,WindDirectionDegrees,WindSpeedMPH,WindSpeedGustMPH,Humidity,HourlyPrecipIn,Conditions,Clouds,dailyrainin,SoftwareType,DateUTC
2016-07-26 00:05:00,77.9,74.1,29.98,NNE,26,0.0,0.0,88,0.00,,---,0.00,VWS V15.00,2016-07-26 04:05:00,
2016-07-26 00:15:00,77.5,74.0,29.98,NNE,26,0.0,0.0,89,0.00,,---,0.00,VWS V15.00,2016-07-26 04:15:00,
2016-07-26 00:25:00,77.4,73.9,29.98,NNE,26,0.0,0.0,89,0.00,,---,0.00,VWS V15.00,2016-07-26 04:25:00,
2016-07-26 00:35:00,77.4,73.9,29.98,NNE,26,0.0,0.0,89,0.00,,---,0.00,VWS V15.00,2016-07-26 04:35:00,
2016-07-26 01:15:00,76.7,73.6,29.99,NNE,26,0.0,0.0,90,0.00,,---,0.00,VWS V15.00,2016-07-26 05:15:00,
2016-07-26 01:25:00,76.7,73.9,29.99,NNE,26,0.0,0.0,91,0.00,,---,0.00,VWS V15.00,2016-07-26 05:25:00,
2016-07-26 01:35:00,76.6,73.8,29.99,NNE,26,0.0,0.0,91,0.00,,---,0.00,VWS V15.00,2016-07-26 05:35:00,
2016-07-26 01:45:00,76.6,73.8,29.99,NNE,26,0.0,0.0,91,0.00,,---,0.00,VWS V15.00,2016-07-26 05:45:00,
2016-07-26 02:00:00,76.3,74.1,29.99,NNE,26,0.0,0.0,93,0.00,,---,0.00,VWS V15.00,2016-07-26 06:00:00,
2016-07-26 02:05:00,76.5,74.0,29.99,NNE,26,0.0,0.0,92,0.00,,---,0.00,VWS V15.00,2016-07-26 06:05:00,
2016-07-26 02:15:00,76.6,74.1,29.99,NNE,26,0.0,0.0,92,0.00,,---,0.00,VWS V15.00,2016-07-26 06:15:00,
2016-07-26 02:25:00,76.6,74.1,29.99,NNE,26,0.0,0.0,92,0.00,,---,0.00,VWS V15.00,2016-07-26 06:25:00,
2016-07-26 02:35:00,76.7,74.2,29.99,NNE,26,0.0,0.0,92,0.00,,---,0.00,VWS V15.00,2016-07-26 06:35:00,
2016-07-26 02:45:00,76.7,74.2,29.99,NNE,26,0.0,0.0,92,0.00,,---,0.00,VWS V15.00,2016-07-26 06:45:00,
2016-07-26 02:55:00,76.6,74.1,29.99,NNE,26,0.0,0.0,92,0.00,,---,0.00,VWS V15.00,2016-07-26 06:55:00,
2016-07-26 03:05:00,76.4,73.9,29.99,NNE,26,0.0,0.0,92,0.00,,---,0.00,VWS V15.00,2016-07-26 07:05:00,
2016-07-26 03:15:00,76.3,74.1,29.99,NNE,26,0.0,0.0,93,0.00,,---,0.00,VWS V15.00,2016-07-26 07:15:00,
2016-07-26 03:25:00,76.3,74.1,29.99,NNE,26,0.0,0.0,93,0.00,,---,0.00,VWS V15.00,2016-07-26 07:25:00,
2016-07-26 03:30:00,75.2,73.0,30.00,NNE,26,0.0,0.0,93,0.00,,---,0.00,VWS V15.00,2016-07-26 07:30:00,
2016-07-26 03:35:00,76.3,74.1,29.99,NNE,26,0.0,0.0,93,0.00,,---,0.00,VWS V15.00,2016-07-26 07:35:00,
2016-07-26 03:45:00,76.3,74.1,29.99,NNE,26,0.0,0.0,93,0.00,,---,0.00,VWS V15.00,2016-07-26 07:45:00,
2016-07-26 03:55:00,76.2,74.0,30.00,NNE,26,0.0,0.0,93,0.00,,---,0.00,VWS V15.00,2016-07-26 07:55:00,
2016-07-26 04:15:00,76.2,74.0,29.99,NNE,26,0.0,0.0,93,0.00,,---,0.00,VWS V15.00,2016-07-26 08:15:00,
2016-07-26 04:20:00,74.9,72.4,30.02,NNE,26,0.0,0.0,92,0.00,,---,0.00,VWS V15.00,2016-07-26 08:20:00,
2016-07-26 04:25:00,76.1,73.9,29.99,NNE,26,0.0,0.0,93,0.00,,---,0.00,VWS V15.00,2016-07-26 08:25:00,
2016-07-26 04:35:00,75.9,73.7,30.00,NNE,26,0.0,0.0,93,0.00,,---,0.00,VWS V15.00,2016-07-26 08:35:00,
2016-07-26 04:45:00,75.9,73.7,29.99,NNE,26,0.0,0.0,93,0.00,,---,0.00,VWS V15.00,2016-07-26 08:45:00,
2016-07-26 04:50:00,74.7,72.2,30.03,NNE,26,0.0,0.0,92,0.00,,---,0.00,VWS V15.00,2016-07-26 08:50:00,
2016-07-26 04:55:00,76.0,73.8,29.99,NNE,26,0.0,0.0,93,0.00,,---,0.00,VWS V15.00,2016-07-26 08:55:00,
2016-07-26 05:05:00,75.8,73.6,30.00,NNE,26,0.0,0.0,93,0.00,,---,0.00,VWS V15.00,2016-07-26 09:05:00,
2016-07-26 05:15:00,75.5,73.3,30.00,NNE,26,0.0,0.0,93,0.00,,---,0.00,VWS V15.00,2016-07-26 09:15:00,
2016-07-26 05:25:00,75.4,73.2,30.00,NNE,26,0.0,0.0,93,0.00,,---,0.00,VWS V15.00,2016-07-26 09:25:00,
2016-07-26 05:45:00,74.9,72.7,30.01,NNE,26,0.0,0.0,93,0.00,,---,0.00,VWS V15.00,2016-07-26 09:45:00,
2016-07-26 05:55:00,74.9,72.4,30.01,NNE,26,0.0,0.0,92,0.00,,---,0.00,VWS V15.00,2016-07-26 09:55:00,
2016-07-26 06:05:00,75.0,72.5,30.02,NNE,26,0.0,0.0,92,0.00,,---,0.00,VWS V15.00,2016-07-26 10:05:00,
2016-07-26 06:15:00,75.0,72.5,30.02,NNE,26,0.0,0.0,92,0.00,,---,0.00,VWS V15.00,2016-07-26 10:15:00,
2016-07-26 06:35:00,74.8,72.3,30.02,NNE,26,0.0,0.0,92,0.00,,---,0.00,VWS V15.00,2016-07-26 10:35:00,
2016-07-26 06:45:00,74.7,71.9,30.02,NNE,26,0.0,0.0,91,0.00,,---,0.00,VWS V15.00,2016-07-26 10:45:00,
2016-07-26 07:05:00,74.6,71.8,30.03,NNE,19,0.0,0.0,91,0.00,,---,0.00,VWS V15.00,2016-07-26 11:05:00,
2016-07-26 07:15:00,74.6,71.8,30.03,NNE,19,0.0,0.0,91,0.00,,---,0.00,VWS V15.00,2016-07-26 11:15:00,
2016-07-26 07:20:00,78.9,72.6,30.03,NNE,19,0.0,0.0,81,0.00,,---,0.00,VWS V15.00,2016-07-26 11:20:00,
2016-07-26 07:25:00,74.7,71.9,30.03,NNE,19,0.0,0.0,91,0.00,,---,0.00,VWS V15.00,2016-07-26 11:25:00,
2016-07-26 07:35:00,74.8,72.0,30.03,NNE,19,0.0,0.0,91,0.00,,---,0.00,VWS V15.00,2016-07-26 11:35:00,
2016-07-26 07:45:00,75.1,72.0,30.03,NNE,19,0.0,0.0,90,0.00,,---,0.00,VWS V15.00,2016-07-26 11:45:00,
2016-07-26 07:50:00,79.1,74.2,30.03,West,269,0.0,4.0,85,0.00,,---,0.00,VWS V15.00,2016-07-26 11:50:00,
2016-07-26 07:55:00,75.3,72.2,30.03,NNE,19,0.0,0.0,90,0.00,,---,0.00,VWS V15.00,2016-07-26 11:55:00,
2016-07-26 08:05:00,75.5,72.0,30.03,NNE,19,0.0,0.0,89,0.00,,---,0.00,VWS V15.00,2016-07-26 12:05:00,
2016-07-26 08:15:00,75.9,72.4,30.03,NNE,19,0.0,0.0,89,0.00,,---,0.00,VWS V15.00,2016-07-26 12:15:00,
2016-07-26 08:25:00,76.3,72.8,30.03,NNE,19,0.0,0.0,89,0.00,,---,0.00,VWS V15.00,2016-07-26 12:25:00,
2016-07-26 08:35:00,76.6,72.8,30.02,NNE,19,0.0,0.0,88,0.00,,---,0.00,VWS V15.00,2016-07-26 12:35:00,
2016-07-26 08:45:00,76.9,72.7,30.02,NNE,19,0.0,0.0,87,0.00,,---,0.00,VWS V15.00,2016-07-26 12:45:00,
2016-07-26 08:55:00,77.5,72.3,30.03,NNE,19,0.0,0.0,84,0.00,,---,0.00,VWS V15.00,2016-07-26 12:55:00,
2016-07-26 09:05:00,78.2,72.3,30.03,NNE,19,0.0,0.0,82,0.00,,---,0.00,VWS V15.00,2016-07-26 13:05:00,
2016-07-26 09:15:00,78.6,72.7,30.03,NNE,19,0.0,0.0,82,0.00,,---,0.00,VWS V15.00,2016-07-26 13:15:00,
2016-07-26 09:20:00,75.4,72.6,30.04,West,274,1.0,2.0,91,0.23,,---,0.23,VWS V15.00,2016-07-26 13:20:00,
2016-07-26 09:30:00,74.8,72.3,30.04,West,271,0.0,3.0,92,0.23,,---,0.23,VWS V15.00,2016-07-26 13:30:00,
2016-07-26 09:35:00,79.3,73.3,30.03,NNE,19,0.0,0.0,82,0.00,,---,0.00,VWS V15.00,2016-07-26 13:35:00,
2016-07-26 09:45:00,79.4,73.4,30.03,West,271,2.0,4.0,82,0.00,,---,0.00,VWS V15.00,2016-07-26 13:45:00,
2016-07-26 10:05:00,79.3,73.7,30.03,WSW,255,0.0,3.0,83,0.00,,---,0.00,VWS V15.00,2016-07-26 14:05:00,
2016-07-26 10:15:00,79.6,74.0,30.03,SSE,147,0.0,3.0,83,0.00,,---,0.00,VWS V15.00,2016-07-26 14:15:00,
2016-07-26 10:25:00,79.7,74.4,30.03,NW,315,0.0,2.0,84,0.00,,---,0.00,VWS V15.00,2016-07-26 14:25:00,
2016-07-26 10:35:00,79.4,73.8,30.03,NE,50,0.0,2.0,83,0.00,,---,0.00,VWS V15.00,2016-07-26 14:35:00,
2016-07-26 10:45:00,78.8,73.2,30.04,NNW,332,0.0,3.0,83,0.00,,---,0.00,VWS V15.00,2016-07-26 14:45:00,
2016-07-26 10:55:00,78.2,73.3,30.04,WNW,282,1.0,4.0,85,0.00,,---,0.00,VWS V15.00,2016-07-26 14:55:00,
2016-07-26 11:00:00,76.1,73.6,30.03,SSE,167,0.0,1.0,92,0.00,,---,0.23,VWS V15.00,2016-07-26 15:00:00,
2016-07-26 11:05:00,77.7,73.2,30.04,WNW,292,0.0,2.0,86,0.00,,---,0.00,VWS V15.00,2016-07-26 15:05:00,
2016-07-26 11:15:00,76.8,73.3,30.04,NW,321,0.0,2.0,89,0.17,,---,0.17,VWS V15.00,2016-07-26 15:15:00,
2016-07-26 11:45:00,74.8,72.3,30.04,West,271,0.0,1.0,92,0.23,,---,0.23,VWS V15.00,2016-07-26 15:45:00,
2016-07-26 11:55:00,74.5,72.3,30.05,West,271,0.0,1.0,93,0.23,,---,0.23,VWS V15.00,2016-07-26 15:55:00,
2016-07-26 12:00:00,74.5,72.7,30.03,SSE,154,0.0,2.0,94,0.03,,---,0.26,VWS V15.00,2016-07-26 16:00:00,
2016-07-26 12:05:00,74.5,72.3,30.05,West,271,0.0,1.0,93,0.23,,---,0.23,VWS V15.00,2016-07-26 16:05:00,
2016-07-26 12:15:00,74.5,72.3,30.04,West,263,0.0,2.0,93,0.23,,---,0.23,VWS V15.00,2016-07-26 16:15:00,
2016-07-26 12:25:00,74.6,72.8,30.04,West,263,0.0,1.0,94,0.06,,---,0.23,VWS V15.00,2016-07-26 16:25:00,
2016-07-26 12:35:00,75.4,73.6,30.03,NNE,15,0.0,2.0,94,0.00,,---,0.23,VWS V15.00,2016-07-26 16:35:00,
2016-07-26 12:45:00,76.6,74.4,30.04,ENE,68,0.0,2.0,93,0.00,,---,0.23,VWS V15.00,2016-07-26 16:45:00,
2016-07-26 12:55:00,76.4,73.9,30.03,SSE,167,0.0,2.0,92,0.00,,---,0.23,VWS V15.00,2016-07-26 16:55:00,
2016-07-26 13:15:00,75.7,73.2,30.04,WNW,288,0.0,3.0,92,0.00,,---,0.23,VWS V15.00,2016-07-26 17:15:00,
2016-07-26 13:25:00,75.3,72.8,30.03,WNW,288,0.0,1.0,92,0.02,,---,0.25,VWS V15.00,2016-07-26 17:25:00,
2016-07-26 13:35:00,74.7,72.2,30.04,WNW,288,1.0,2.0,92,0.02,,---,0.25,VWS V15.00,2016-07-26 17:35:00,
2016-07-26 13:45:00,74.5,72.3,30.02,West,259,0.0,4.0,93,0.03,,---,0.26,VWS V15.00,2016-07-26 17:45:00,
2016-07-26 13:55:00,74.2,72.1,30.03,SSE,155,1.0,3.0,93,0.03,,---,0.26,VWS V15.00,2016-07-26 17:55:00,
2016-07-26 14:15:00,74.8,73.0,30.03,ESE,106,1.0,2.0,94,0.03,,---,0.26,VWS V15.00,2016-07-26 18:15:00,
2016-07-26 14:25:00,75.0,73.2,30.03,ESE,106,0.0,2.0,94,0.03,,---,0.26,VWS V15.00,2016-07-26 18:25:00,
2016-07-26 14:35:00,75.9,74.1,30.03,NE,44,0.0,3.0,94,0.01,,---,0.26,VWS V15.00,2016-07-26 18:35:00,
2016-07-26 14:45:00,77.5,75.0,30.02,SE,129,0.0,3.0,92,0.01,,---,0.26,VWS V15.00,2016-07-26 18:45:00,
2016-07-26 14:55:00,78.5,75.7,30.01,NW,314,1.0,3.0,91,0.00,,---,0.26,VWS V15.00,2016-07-26 18:55:00,
2016-07-26 15:05:00,78.3,75.1,30.00,SE,138,3.0,3.0,90,0.00,,---,0.26,VWS V15.00,2016-07-26 19:05:00,
2016-07-26 15:15:00,78.8,75.6,30.00,East,86,2.0,4.0,90,0.00,,---,0.26,VWS V15.00,2016-07-26 19:15:00,